sensor_id;sensor_type;location;lat;lon;timestamp;temperature;humidity
21108;DHT22;10712;52.944;9.098;2023-03-07T00:01:37;3.60;89.60
21108;DHT22;10712;52.944;9.098;2023-03-07T00:04:03;3.60;89.70
21108;DHT22;10712;52.944;9.098;2023-03-07T00:06:29;3.60;89.80
21108;DHT22;10712;52.944;9.098;2023-03-07T00:08:57;3.60;89.70
21108;DHT22;10712;52.944;9.098;2023-03-07T00:11:25;3.60;89.90
21108;DHT22;10712;52.944;9.098;2023-03-07T00:13:52;3.60;90.10
21108;DHT22;10712;52.944;9.098;2023-03-07T00:16:21;3.60;90.10
21108;DHT22;10712;52.944;9.098;2023-03-07T00:18:48;3.60;90.20
21108;DHT22;10712;52.944;9.098;2023-03-07T00:21:16;3.60;90.40
21108;DHT22;10712;52.944;9.098;2023-03-07T00:23:45;3.50;90.40
21108;DHT22;10712;52.944;9.098;2023-03-07T00:26:22;3.50;90.60
21108;DHT22;10712;52.944;9.098;2023-03-07T00:28:50;3.50;90.80
21108;DHT22;10712;52.944;9.098;2023-03-07T00:31:17;3.50;90.90
21108;DHT22;10712;52.944;9.098;2023-03-07T00:33:44;3.50;90.90
21108;DHT22;10712;52.944;9.098;2023-03-07T00:36:18;3.50;91.00
21108;DHT22;10712;52.944;9.098;2023-03-07T00:38:46;3.50;91.10
21108;DHT22;10712;52.944;9.098;2023-03-07T00:41:17;3.50;91.20
21108;DHT22;10712;52.944;9.098;2023-03-07T00:43:45;3.50;91.20
21108;DHT22;10712;52.944;9.098;2023-03-07T00:46:13;3.50;91.30
21108;DHT22;10712;52.944;9.098;2023-03-07T00:48:40;3.50;91.20
21108;DHT22;10712;52.944;9.098;2023-03-07T00:51:08;3.50;91.20
21108;DHT22;10712;52.944;9.098;2023-03-07T00:53:36;3.50;91.20
21108;DHT22;10712;52.944;9.098;2023-03-07T00:56:12;3.50;91.20
21108;DHT22;10712;52.944;9.098;2023-03-07T00:58:42;3.40;91.30
21108;DHT22;10712;52.944;9.098;2023-03-07T01:01:10;3.50;91.20
21108;DHT22;10712;52.944;9.098;2023-03-07T01:03:39;3.50;91.20
21108;DHT22;10712;52.944;9.098;2023-03-07T01:06:08;3.50;91.10
21108;DHT22;10712;52.944;9.098;2023-03-07T01:08:37;3.40;91.20
21108;DHT22;10712;52.944;9.098;2023-03-07T01:11:05;3.40;91.30
21108;DHT22;10712;52.944;9.098;2023-03-07T01:13:33;3.40;91.30
21108;DHT22;10712;52.944;9.098;2023-03-07T01:18:48;3.40;91.30
21108;DHT22;10712;52.944;9.098;2023-03-07T01:21:23;3.40;91.40
21108;DHT22;10712;52.944;9.098;2023-03-07T01:23:52;3.40;91.40
21108;DHT22;10712;52.944;9.098;2023-03-07T01:26:26;3.30;91.50
21108;DHT22;10712;52.944;9.098;2023-03-07T01:28:56;3.30;91.70
21108;DHT22;10712;52.944;9.098;2023-03-07T01:31:24;3.30;91.70
21108;DHT22;10712;52.944;9.098;2023-03-07T01:33:52;3.30;91.70
21108;DHT22;10712;52.944;9.098;2023-03-07T01:36:24;3.30;91.80
21108;DHT22;10712;52.944;9.098;2023-03-07T01:39:12;3.30;91.90
21108;DHT22;10712;52.944;9.098;2023-03-07T01:41:44;3.30;91.80
21108;DHT22;10712;52.944;9.098;2023-03-07T01:44:19;3.40;91.80
21108;DHT22;10712;52.944;9.098;2023-03-07T01:46:51;3.30;91.80
21108;DHT22;10712;52.944;9.098;2023-03-07T01:54:42;3.30;92.00
21108;DHT22;10712;52.944;9.098;2023-03-07T01:57:20;3.30;92.10
21108;DHT22;10712;52.944;9.098;2023-03-07T01:59:53;3.30;92.10
21108;DHT22;10712;52.944;9.098;2023-03-07T02:02:23;3.30;92.10
21108;DHT22;10712;52.944;9.098;2023-03-07T02:04:56;3.30;92.10
21108;DHT22;10712;52.944;9.098;2023-03-07T02:07:34;3.40;92.10
21108;DHT22;10712;52.944;9.098;2023-03-07T02:10:13;3.40;92.00
21108;DHT22;10712;52.944;9.098;2023-03-07T02:12:40;3.40;91.90
21108;DHT22;10712;52.944;9.098;2023-03-07T02:15:08;3.40;91.80
21108;DHT22;10712;52.944;9.098;2023-03-07T02:17:36;3.40;91.70
21108;DHT22;10712;52.944;9.098;2023-03-07T02:23:00;3.30;92.00
21108;DHT22;10712;52.944;9.098;2023-03-07T02:28:32;3.20;92.40
21108;DHT22;10712;52.944;9.098;2023-03-07T02:31:03;3.20;92.60
21108;DHT22;10712;52.944;9.098;2023-03-07T02:33:33;3.30;92.70
21108;DHT22;10712;52.944;9.098;2023-03-07T02:36:16;3.20;92.70
21108;DHT22;10712;52.944;9.098;2023-03-07T02:38:58;3.30;92.90
21108;DHT22;10712;52.944;9.098;2023-03-07T02:41:29;3.20;93.00
21108;DHT22;10712;52.944;9.098;2023-03-07T02:44:01;3.20;93.20
21108;DHT22;10712;52.944;9.098;2023-03-07T02:46:27;3.30;93.40
21108;DHT22;10712;52.944;9.098;2023-03-07T02:48:53;3.30;93.50
21108;DHT22;10712;52.944;9.098;2023-03-07T02:51:20;3.30;93.50
21108;DHT22;10712;52.944;9.098;2023-03-07T02:53:46;3.30;93.60
21108;DHT22;10712;52.944;9.098;2023-03-07T02:56:12;3.40;93.70
21108;DHT22;10712;52.944;9.098;2023-03-07T02:58:39;3.40;93.80
21108;DHT22;10712;52.944;9.098;2023-03-07T03:01:05;3.40;93.90
21108;DHT22;10712;52.944;9.098;2023-03-07T03:03:31;3.40;94.00
21108;DHT22;10712;52.944;9.098;2023-03-07T03:05:57;3.50;94.00
21108;DHT22;10712;52.944;9.098;2023-03-07T03:08:23;3.40;94.10
21108;DHT22;10712;52.944;9.098;2023-03-07T03:10:52;3.50;94.20
21108;DHT22;10712;52.944;9.098;2023-03-07T03:13:21;3.50;94.30
21108;DHT22;10712;52.944;9.098;2023-03-07T03:15:47;3.50;94.20
21108;DHT22;10712;52.944;9.098;2023-03-07T03:18:13;3.50;94.30
21108;DHT22;10712;52.944;9.098;2023-03-07T03:20:40;3.60;94.30
21108;DHT22;10712;52.944;9.098;2023-03-07T03:23:06;3.60;94.10
21108;DHT22;10712;52.944;9.098;2023-03-07T03:25:33;3.60;94.10
21108;DHT22;10712;52.944;9.098;2023-03-07T03:28:00;3.60;93.90
21108;DHT22;10712;52.944;9.098;2023-03-07T03:30:27;3.60;94.10
21108;DHT22;10712;52.944;9.098;2023-03-07T03:32:57;3.60;94.10
21108;DHT22;10712;52.944;9.098;2023-03-07T03:35:24;3.60;93.90
21108;DHT22;10712;52.944;9.098;2023-03-07T03:37:50;3.60;93.80
21108;DHT22;10712;52.944;9.098;2023-03-07T03:40:16;3.60;93.50
21108;DHT22;10712;52.944;9.098;2023-03-07T03:42:43;3.70;93.50
21108;DHT22;10712;52.944;9.098;2023-03-07T03:45:12;3.70;93.30
21108;DHT22;10712;52.944;9.098;2023-03-07T03:47:42;3.70;93.20
21108;DHT22;10712;52.944;9.098;2023-03-07T03:50:09;3.70;92.90
21108;DHT22;10712;52.944;9.098;2023-03-07T03:52:35;3.70;92.50
21108;DHT22;10712;52.944;9.098;2023-03-07T03:55:01;3.70;92.50
21108;DHT22;10712;52.944;9.098;2023-03-07T03:57:27;3.70;92.50
21108;DHT22;10712;52.944;9.098;2023-03-07T03:59:53;3.70;92.40
21108;DHT22;10712;52.944;9.098;2023-03-07T04:02:20;3.70;92.30
21108;DHT22;10712;52.944;9.098;2023-03-07T04:04:46;3.70;92.20
21108;DHT22;10712;52.944;9.098;2023-03-07T04:07:12;3.70;92.20
21108;DHT22;10712;52.944;9.098;2023-03-07T04:09:38;3.70;92.10
21108;DHT22;10712;52.944;9.098;2023-03-07T04:12:04;3.70;92.10
21108;DHT22;10712;52.944;9.098;2023-03-07T04:14:30;3.70;92.00
21108;DHT22;10712;52.944;9.098;2023-03-07T04:16:56;3.70;91.80
21108;DHT22;10712;52.944;9.098;2023-03-07T04:19:22;3.70;91.70
21108;DHT22;10712;52.944;9.098;2023-03-07T04:21:48;3.70;91.80
21108;DHT22;10712;52.944;9.098;2023-03-07T04:24:15;3.70;91.70
21108;DHT22;10712;52.944;9.098;2023-03-07T04:26:41;3.70;91.50
21108;DHT22;10712;52.944;9.098;2023-03-07T04:29:09;3.60;91.30
21108;DHT22;10712;52.944;9.098;2023-03-07T04:31:50;3.70;91.20
21108;DHT22;10712;52.944;9.098;2023-03-07T04:34:16;3.70;90.80
21108;DHT22;10712;52.944;9.098;2023-03-07T04:36:42;3.60;90.70
21108;DHT22;10712;52.944;9.098;2023-03-07T04:39:08;3.60;90.90
21108;DHT22;10712;52.944;9.098;2023-03-07T04:41:34;3.60;90.80
21108;DHT22;10712;52.944;9.098;2023-03-07T04:44:20;3.60;90.90
21108;DHT22;10712;52.944;9.098;2023-03-07T04:46:46;3.60;90.70
21108;DHT22;10712;52.944;9.098;2023-03-07T04:49:12;3.50;90.60
21108;DHT22;10712;52.944;9.098;2023-03-07T04:51:39;3.50;90.80
21108;DHT22;10712;52.944;9.098;2023-03-07T04:54:05;3.50;90.80
21108;DHT22;10712;52.944;9.098;2023-03-07T04:56:32;3.50;90.90
21108;DHT22;10712;52.944;9.098;2023-03-07T04:58:58;3.50;90.50
21108;DHT22;10712;52.944;9.098;2023-03-07T05:01:24;3.60;90.30
21108;DHT22;10712;52.944;9.098;2023-03-07T05:03:51;3.50;90.20
21108;DHT22;10712;52.944;9.098;2023-03-07T05:06:19;3.60;90.10
21108;DHT22;10712;52.944;9.098;2023-03-07T05:08:48;3.60;90.00
21108;DHT22;10712;52.944;9.098;2023-03-07T05:11:14;3.60;89.90
21108;DHT22;10712;52.944;9.098;2023-03-07T05:13:41;3.60;89.80
21108;DHT22;10712;52.944;9.098;2023-03-07T05:16:07;3.50;89.80
21108;DHT22;10712;52.944;9.098;2023-03-07T05:18:33;3.60;89.70
21108;DHT22;10712;52.944;9.098;2023-03-07T05:20:59;3.60;89.70
21108;DHT22;10712;52.944;9.098;2023-03-07T05:23:26;3.60;89.50
21108;DHT22;10712;52.944;9.098;2023-03-07T05:25:53;3.60;89.50
21108;DHT22;10712;52.944;9.098;2023-03-07T05:28:19;3.60;89.30
21108;DHT22;10712;52.944;9.098;2023-03-07T05:30:45;3.60;89.20
21108;DHT22;10712;52.944;9.098;2023-03-07T05:33:12;3.50;89.20
21108;DHT22;10712;52.944;9.098;2023-03-07T05:35:39;3.50;89.40
21108;DHT22;10712;52.944;9.098;2023-03-07T05:38:07;3.50;89.50
21108;DHT22;10712;52.944;9.098;2023-03-07T05:40:33;3.50;89.30
21108;DHT22;10712;52.944;9.098;2023-03-07T05:42:58;3.50;89.20
21108;DHT22;10712;52.944;9.098;2023-03-07T05:45:24;3.50;88.90
21108;DHT22;10712;52.944;9.098;2023-03-07T05:47:50;3.50;88.80
21108;DHT22;10712;52.944;9.098;2023-03-07T05:50:17;3.50;88.10
21108;DHT22;10712;52.944;9.098;2023-03-07T05:52:45;3.50;87.80
21108;DHT22;10712;52.944;9.098;2023-03-07T05:55:10;3.50;87.70
21108;DHT22;10712;52.944;9.098;2023-03-07T05:57:36;3.50;87.70
21108;DHT22;10712;52.944;9.098;2023-03-07T06:00:04;3.50;87.60
21108;DHT22;10712;52.944;9.098;2023-03-07T06:02:39;3.50;87.20
21108;DHT22;10712;52.944;9.098;2023-03-07T06:05:06;3.50;87.10
21108;DHT22;10712;52.944;9.098;2023-03-07T06:07:32;3.40;87.10
21108;DHT22;10712;52.944;9.098;2023-03-07T06:09:58;3.40;87.20
21108;DHT22;10712;52.944;9.098;2023-03-07T06:12:24;3.40;87.20
21108;DHT22;10712;52.944;9.098;2023-03-07T06:14:50;3.40;86.60
21108;DHT22;10712;52.944;9.098;2023-03-07T06:17:16;3.40;86.30
21108;DHT22;10712;52.944;9.098;2023-03-07T06:19:42;3.40;86.20
21108;DHT22;10712;52.944;9.098;2023-03-07T06:22:07;3.40;86.20
21108;DHT22;10712;52.944;9.098;2023-03-07T06:24:33;3.40;85.90
21108;DHT22;10712;52.944;9.098;2023-03-07T06:26:59;3.40;85.80
21108;DHT22;10712;52.944;9.098;2023-03-07T06:29:27;3.40;85.60
21108;DHT22;10712;52.944;9.098;2023-03-07T06:31:53;3.30;85.30
21108;DHT22;10712;52.944;9.098;2023-03-07T06:34:19;3.30;85.30
21108;DHT22;10712;52.944;9.098;2023-03-07T06:36:46;3.40;85.20
21108;DHT22;10712;52.944;9.098;2023-03-07T06:39:13;3.40;85.00
21108;DHT22;10712;52.944;9.098;2023-03-07T06:41:42;3.30;85.00
21108;DHT22;10712;52.944;9.098;2023-03-07T06:44:07;3.30;85.00
21108;DHT22;10712;52.944;9.098;2023-03-07T06:46:35;3.30;84.70
21108;DHT22;10712;52.944;9.098;2023-03-07T06:49:07;3.30;84.80
21108;DHT22;10712;52.944;9.098;2023-03-07T06:51:33;3.40;84.60
21108;DHT22;10712;52.944;9.098;2023-03-07T06:53:59;3.40;84.30
21108;DHT22;10712;52.944;9.098;2023-03-07T06:56:26;3.40;84.40
21108;DHT22;10712;52.944;9.098;2023-03-07T06:58:54;3.40;84.40
21108;DHT22;10712;52.944;9.098;2023-03-07T07:01:21;3.40;84.50
21108;DHT22;10712;52.944;9.098;2023-03-07T07:03:50;3.50;84.60
21108;DHT22;10712;52.944;9.098;2023-03-07T07:06:16;3.50;84.50
21108;DHT22;10712;52.944;9.098;2023-03-07T07:08:42;3.50;84.60
21108;DHT22;10712;52.944;9.098;2023-03-07T07:11:09;3.50;84.80
21108;DHT22;10712;52.944;9.098;2023-03-07T07:13:35;3.50;84.50
21108;DHT22;10712;52.944;9.098;2023-03-07T07:16:04;3.60;84.30
21108;DHT22;10712;52.944;9.098;2023-03-07T07:18:32;3.60;84.10
21108;DHT22;10712;52.944;9.098;2023-03-07T07:20:58;3.70;84.10
21108;DHT22;10712;52.944;9.098;2023-03-07T07:23:25;3.70;84.10
21108;DHT22;10712;52.944;9.098;2023-03-07T07:25:52;3.70;84.10
21108;DHT22;10712;52.944;9.098;2023-03-07T07:28:18;3.70;84.00
21108;DHT22;10712;52.944;9.098;2023-03-07T07:30:44;3.70;84.10
21108;DHT22;10712;52.944;9.098;2023-03-07T07:33:12;3.80;84.20
21108;DHT22;10712;52.944;9.098;2023-03-07T07:35:40;3.80;84.10
21108;DHT22;10712;52.944;9.098;2023-03-07T07:38:07;3.80;84.20
21108;DHT22;10712;52.944;9.098;2023-03-07T07:40:33;3.80;84.00
21108;DHT22;10712;52.944;9.098;2023-03-07T07:42:59;3.90;84.00
21108;DHT22;10712;52.944;9.098;2023-03-07T07:45:31;3.90;83.90
21108;DHT22;10712;52.944;9.098;2023-03-07T07:47:57;3.90;83.50
21108;DHT22;10712;52.944;9.098;2023-03-07T07:50:23;4.00;83.10
21108;DHT22;10712;52.944;9.098;2023-03-07T07:52:52;4.00;82.80
21108;DHT22;10712;52.944;9.098;2023-03-07T07:55:19;4.00;82.90
21108;DHT22;10712;52.944;9.098;2023-03-07T07:57:45;4.10;83.00
21108;DHT22;10712;52.944;9.098;2023-03-07T08:00:11;4.10;82.30
21108;DHT22;10712;52.944;9.098;2023-03-07T08:02:38;4.10;82.60
21108;DHT22;10712;52.944;9.098;2023-03-07T08:05:07;4.10;82.50
21108;DHT22;10712;52.944;9.098;2023-03-07T08:07:35;4.10;82.80
21108;DHT22;10712;52.944;9.098;2023-03-07T08:10:01;4.20;82.20
21108;DHT22;10712;52.944;9.098;2023-03-07T08:12:28;4.20;81.60
21108;DHT22;10712;52.944;9.098;2023-03-07T08:14:54;4.20;81.40
21108;DHT22;10712;52.944;9.098;2023-03-07T08:17:19;4.20;81.80
21108;DHT22;10712;52.944;9.098;2023-03-07T08:19:45;4.20;81.90
21108;DHT22;10712;52.944;9.098;2023-03-07T08:22:11;4.20;81.90
21108;DHT22;10712;52.944;9.098;2023-03-07T08:24:36;4.20;81.90
21108;DHT22;10712;52.944;9.098;2023-03-07T08:27:02;4.30;81.40
21108;DHT22;10712;52.944;9.098;2023-03-07T08:29:29;4.30;81.50
21108;DHT22;10712;52.944;9.098;2023-03-07T08:31:55;4.30;81.90
21108;DHT22;10712;52.944;9.098;2023-03-07T08:34:21;4.30;81.60
21108;DHT22;10712;52.944;9.098;2023-03-07T08:36:46;4.30;81.30
21108;DHT22;10712;52.944;9.098;2023-03-07T08:39:12;4.30;81.70
21108;DHT22;10712;52.944;9.098;2023-03-07T08:41:38;4.30;81.60
21108;DHT22;10712;52.944;9.098;2023-03-07T08:44:04;4.30;81.40
21108;DHT22;10712;52.944;9.098;2023-03-07T08:46:30;4.30;81.50
21108;DHT22;10712;52.944;9.098;2023-03-07T08:48:55;4.30;81.20
21108;DHT22;10712;52.944;9.098;2023-03-07T08:51:21;4.30;80.60
21108;DHT22;10712;52.944;9.098;2023-03-07T08:53:47;4.30;80.80
21108;DHT22;10712;52.944;9.098;2023-03-07T08:56:15;4.30;81.20
21108;DHT22;10712;52.944;9.098;2023-03-07T08:58:43;4.30;81.50
21108;DHT22;10712;52.944;9.098;2023-03-07T09:01:09;4.30;81.50
21108;DHT22;10712;52.944;9.098;2023-03-07T09:03:37;4.30;81.80
21108;DHT22;10712;52.944;9.098;2023-03-07T09:06:04;4.30;82.10
21108;DHT22;10712;52.944;9.098;2023-03-07T09:08:30;4.40;82.00
21108;DHT22;10712;52.944;9.098;2023-03-07T09:11:00;4.40;81.80
21108;DHT22;10712;52.944;9.098;2023-03-07T09:13:30;4.40;81.90
21108;DHT22;10712;52.944;9.098;2023-03-07T09:15:55;4.40;81.20
21108;DHT22;10712;52.944;9.098;2023-03-07T09:18:21;4.40;81.10
21108;DHT22;10712;52.944;9.098;2023-03-07T09:20:47;4.40;80.90
21108;DHT22;10712;52.944;9.098;2023-03-07T09:23:13;4.30;81.10
21108;DHT22;10712;52.944;9.098;2023-03-07T09:25:38;4.30;80.90
21108;DHT22;10712;52.944;9.098;2023-03-07T09:28:05;4.30;80.80
21108;DHT22;10712;52.944;9.098;2023-03-07T09:30:31;4.30;80.70
21108;DHT22;10712;52.944;9.098;2023-03-07T09:32:57;4.40;80.40
21108;DHT22;10712;52.944;9.098;2023-03-07T09:35:23;4.40;80.30
21108;DHT22;10712;52.944;9.098;2023-03-07T09:37:49;4.40;80.40
21108;DHT22;10712;52.944;9.098;2023-03-07T09:40:18;4.40;80.20
21108;DHT22;10712;52.944;9.098;2023-03-07T09:45:48;4.40;80.20
21108;DHT22;10712;52.944;9.098;2023-03-07T09:48:47;4.40;80.10
21108;DHT22;10712;52.944;9.098;2023-03-07T09:54:08;4.40;79.40
21108;DHT22;10712;52.944;9.098;2023-03-07T09:56:46;4.40;79.50
21108;DHT22;10712;52.944;9.098;2023-03-07T09:59:32;4.40;79.00
21108;DHT22;10712;52.944;9.098;2023-03-07T10:05:03;4.40;77.90
21108;DHT22;10712;52.944;9.098;2023-03-07T10:07:36;4.40;77.70
21108;DHT22;10712;52.944;9.098;2023-03-07T10:10:11;4.40;77.90
21108;DHT22;10712;52.944;9.098;2023-03-07T10:13:09;4.40;78.30
21108;DHT22;10712;52.944;9.098;2023-03-07T10:15:51;4.50;78.20
21108;DHT22;10712;52.944;9.098;2023-03-07T10:27:11;4.50;77.90
21108;DHT22;10712;52.944;9.098;2023-03-07T10:29:49;4.50;77.60
21108;DHT22;10712;52.944;9.098;2023-03-07T10:32:40;4.60;77.90
21108;DHT22;10712;52.944;9.098;2023-03-07T10:40:25;4.60;78.60
21108;DHT22;10712;52.944;9.098;2023-03-07T10:43:31;4.70;78.20
21108;DHT22;10712;52.944;9.098;2023-03-07T10:48:39;4.80;78.30
21108;DHT22;10712;52.944;9.098;2023-03-07T10:54:16;4.80;78.40
21108;DHT22;10712;52.944;9.098;2023-03-07T10:57:08;4.80;78.70
21108;DHT22;10712;52.944;9.098;2023-03-07T10:59:37;4.80;78.90
21108;DHT22;10712;52.944;9.098;2023-03-07T11:04:56;4.80;79.40
21108;DHT22;10712;52.944;9.098;2023-03-07T11:07:29;4.70;78.20
21108;DHT22;10712;52.944;9.098;2023-03-07T11:09:57;4.40;78.20
21108;DHT22;10712;52.944;9.098;2023-03-07T11:12:27;4.00;79.40
21108;DHT22;10712;52.944;9.098;2023-03-07T11:15:18;3.70;80.50
21108;DHT22;10712;52.944;9.098;2023-03-07T11:17:49;3.30;81.80
21108;DHT22;10712;52.944;9.098;2023-03-07T11:25:39;2.60;84.90
21108;DHT22;10712;52.944;9.098;2023-03-07T11:28:29;2.50;85.70
21108;DHT22;10712;52.944;9.098;2023-03-07T11:36:42;2.20;87.80
21108;DHT22;10712;52.944;9.098;2023-03-07T11:39:33;2.20;88.40
21108;DHT22;10712;52.944;9.098;2023-03-07T11:42:16;2.20;88.70
21108;DHT22;10712;52.944;9.098;2023-03-07T11:44:52;2.30;89.10
21108;DHT22;10712;52.944;9.098;2023-03-07T11:47:49;2.40;89.50
21108;DHT22;10712;52.944;9.098;2023-03-07T11:50:28;2.50;89.80
21108;DHT22;10712;52.944;9.098;2023-03-07T11:59:22;2.70;90.20
21108;DHT22;10712;52.944;9.098;2023-03-07T12:02:03;2.80;90.30
21108;DHT22;10712;52.944;9.098;2023-03-07T12:10:46;3.20;90.40
21108;DHT22;10712;52.944;9.098;2023-03-07T12:16:36;3.40;89.80
21108;DHT22;10712;52.944;9.098;2023-03-07T12:22:25;3.50;89.00
21108;DHT22;10712;52.944;9.098;2023-03-07T12:25:16;3.60;88.50
21108;DHT22;10712;52.944;9.098;2023-03-07T12:33:57;3.80;86.70
21108;DHT22;10712;52.944;9.098;2023-03-07T12:36:47;3.90;86.50
21108;DHT22;10712;52.944;9.098;2023-03-07T12:39:51;4.00;86.40
21108;DHT22;10712;52.944;9.098;2023-03-07T12:45:26;4.10;85.90
21108;DHT22;10712;52.944;9.098;2023-03-07T12:48:21;4.10;85.70
21108;DHT22;10712;52.944;9.098;2023-03-07T12:51:15;4.20;85.50
21108;DHT22;10712;52.944;9.098;2023-03-07T12:56:45;4.20;83.40
21108;DHT22;10712;52.944;9.098;2023-03-07T12:59:18;4.30;83.20
21108;DHT22;10712;52.944;9.098;2023-03-07T13:04:35;4.40;84.10
21108;DHT22;10712;52.944;9.098;2023-03-07T13:07:14;4.40;84.00
21108;DHT22;10712;52.944;9.098;2023-03-07T13:09:46;4.50;82.80
21108;DHT22;10712;52.944;9.098;2023-03-07T13:14:58;4.60;80.10
21108;DHT22;10712;52.944;9.098;2023-03-07T13:27:54;4.70;79.10
21108;DHT22;10712;52.944;9.098;2023-03-07T13:30:31;4.70;79.50
21108;DHT22;10712;52.944;9.098;2023-03-07T13:33:03;4.70;79.10
21108;DHT22;10712;52.944;9.098;2023-03-07T13:35:58;4.70;78.60
21108;DHT22;10712;52.944;9.098;2023-03-07T13:38:41;4.70;77.70
21108;DHT22;10712;52.944;9.098;2023-03-07T13:41:12;4.70;77.00
21108;DHT22;10712;52.944;9.098;2023-03-07T13:43:59;4.80;76.30
21108;DHT22;10712;52.944;9.098;2023-03-07T13:49:07;4.80;75.60
21108;DHT22;10712;52.944;9.098;2023-03-07T13:51:32;4.80;75.80
21108;DHT22;10712;52.944;9.098;2023-03-07T13:54:09;4.80;75.50
21108;DHT22;10712;52.944;9.098;2023-03-07T13:56:41;4.80;75.80
21108;DHT22;10712;52.944;9.098;2023-03-07T13:59:17;4.90;76.00
21108;DHT22;10712;52.944;9.098;2023-03-07T14:01:56;4.90;75.30
21108;DHT22;10712;52.944;9.098;2023-03-07T14:07:33;5.00;74.70
21108;DHT22;10712;52.944;9.098;2023-03-07T14:10:20;5.00;74.30
21108;DHT22;10712;52.944;9.098;2023-03-07T14:18:21;5.10;73.30
21108;DHT22;10712;52.944;9.098;2023-03-07T14:27:09;5.20;69.70
21108;DHT22;10712;52.944;9.098;2023-03-07T14:29:49;5.20;69.70
21108;DHT22;10712;52.944;9.098;2023-03-07T14:32:27;5.20;70.20
21108;DHT22;10712;52.944;9.098;2023-03-07T14:34:55;5.20;69.40
21108;DHT22;10712;52.944;9.098;2023-03-07T14:37:29;5.20;68.80
21108;DHT22;10712;52.944;9.098;2023-03-07T14:40:24;5.10;67.80
21108;DHT22;10712;52.944;9.098;2023-03-07T14:51:31;5.00;67.60
21108;DHT22;10712;52.944;9.098;2023-03-07T14:54:06;4.90;68.30
21108;DHT22;10712;52.944;9.098;2023-03-07T14:56:37;4.90;69.00
21108;DHT22;10712;52.944;9.098;2023-03-07T14:59:05;4.90;69.70
21108;DHT22;10712;52.944;9.098;2023-03-07T15:01:38;4.90;69.60
21108;DHT22;10712;52.944;9.098;2023-03-07T15:06:52;4.80;70.70
21108;DHT22;10712;52.944;9.098;2023-03-07T15:09:20;4.70;71.40
21108;DHT22;10712;52.944;9.098;2023-03-07T15:12:06;4.70;71.60
21108;DHT22;10712;52.944;9.098;2023-03-07T15:14:46;4.60;72.10
21108;DHT22;10712;52.944;9.098;2023-03-07T15:20:19;4.60;73.00
21108;DHT22;10712;52.944;9.098;2023-03-07T15:22:49;4.50;73.50
21108;DHT22;10712;52.944;9.098;2023-03-07T15:25:23;4.50;74.20
21108;DHT22;10712;52.944;9.098;2023-03-07T15:28:00;4.50;74.60
21108;DHT22;10712;52.944;9.098;2023-03-07T15:30:34;4.50;74.90
21108;DHT22;10712;52.944;9.098;2023-03-07T15:33:13;4.50;75.20
21108;DHT22;10712;52.944;9.098;2023-03-07T15:35:41;4.40;75.40
21108;DHT22;10712;52.944;9.098;2023-03-07T15:38:17;4.40;75.50
21108;DHT22;10712;52.944;9.098;2023-03-07T15:40:48;4.40;75.40
21108;DHT22;10712;52.944;9.098;2023-03-07T15:51:04;4.40;75.60
21108;DHT22;10712;52.944;9.098;2023-03-07T15:53:40;4.40;75.60
21108;DHT22;10712;52.944;9.098;2023-03-07T15:56:22;4.40;75.30
21108;DHT22;10712;52.944;9.098;2023-03-07T15:58:59;4.40;74.80
21108;DHT22;10712;52.944;9.098;2023-03-07T16:01:27;4.40;74.80
21108;DHT22;10712;52.944;9.098;2023-03-07T16:03:54;4.40;75.00
21108;DHT22;10712;52.944;9.098;2023-03-07T16:09:03;4.30;74.60
21108;DHT22;10712;52.944;9.098;2023-03-07T16:11:30;4.30;74.60
21108;DHT22;10712;52.944;9.098;2023-03-07T16:13:57;4.30;74.40
21108;DHT22;10712;52.944;9.098;2023-03-07T16:16:26;4.30;74.70
21108;DHT22;10712;52.944;9.098;2023-03-07T16:18:54;4.20;75.00
21108;DHT22;10712;52.944;9.098;2023-03-07T16:21:24;4.20;75.60
21108;DHT22;10712;52.944;9.098;2023-03-07T16:23:50;4.10;76.00
21108;DHT22;10712;52.944;9.098;2023-03-07T16:26:21;4.10;76.30
21108;DHT22;10712;52.944;9.098;2023-03-07T16:28:49;4.00;76.50
21108;DHT22;10712;52.944;9.098;2023-03-07T16:31:18;4.00;77.00
21108;DHT22;10712;52.944;9.098;2023-03-07T16:33:44;3.90;77.40
21108;DHT22;10712;52.944;9.098;2023-03-07T16:36:12;3.90;77.70
21108;DHT22;10712;52.944;9.098;2023-03-07T16:38:40;3.80;78.00
21108;DHT22;10712;52.944;9.098;2023-03-07T16:41:16;3.80;78.10
21108;DHT22;10712;52.944;9.098;2023-03-07T16:43:45;3.70;78.30
21108;DHT22;10712;52.944;9.098;2023-03-07T16:46:17;3.70;78.40
21108;DHT22;10712;52.944;9.098;2023-03-07T16:48:44;3.70;78.50
21108;DHT22;10712;52.944;9.098;2023-03-07T16:51:19;3.60;78.80
21108;DHT22;10712;52.944;9.098;2023-03-07T16:53:48;3.60;78.90
21108;DHT22;10712;52.944;9.098;2023-03-07T16:56:26;3.60;78.80
21108;DHT22;10712;52.944;9.098;2023-03-07T16:58:56;3.50;78.80
21108;DHT22;10712;52.944;9.098;2023-03-07T17:01:22;3.50;78.70
21108;DHT22;10712;52.944;9.098;2023-03-07T17:03:48;3.40;78.50
21108;DHT22;10712;52.944;9.098;2023-03-07T17:06:15;3.40;78.50
21108;DHT22;10712;52.944;9.098;2023-03-07T17:08:42;3.30;78.30
21108;DHT22;10712;52.944;9.098;2023-03-07T17:11:27;3.30;78.40
21108;DHT22;10712;52.944;9.098;2023-03-07T17:14:01;3.20;78.50
21108;DHT22;10712;52.944;9.098;2023-03-07T17:16:28;3.10;78.50
21108;DHT22;10712;52.944;9.098;2023-03-07T17:18:54;3.10;78.80
21108;DHT22;10712;52.944;9.098;2023-03-07T17:21:21;3.00;78.90
21108;DHT22;10712;52.944;9.098;2023-03-07T17:23:48;3.00;79.20
21108;DHT22;10712;52.944;9.098;2023-03-07T17:26:34;3.00;79.30
21108;DHT22;10712;52.944;9.098;2023-03-07T17:29:08;3.00;79.40
21108;DHT22;10712;52.944;9.098;2023-03-07T17:31:39;2.90;79.50
21108;DHT22;10712;52.944;9.098;2023-03-07T17:34:22;2.90;79.60
21108;DHT22;10712;52.944;9.098;2023-03-07T17:36:54;2.90;79.80
21108;DHT22;10712;52.944;9.098;2023-03-07T17:39:20;2.90;79.90
21108;DHT22;10712;52.944;9.098;2023-03-07T17:41:47;2.80;80.20
21108;DHT22;10712;52.944;9.098;2023-03-07T17:44:13;2.90;80.40
21108;DHT22;10712;52.944;9.098;2023-03-07T17:46:39;2.80;80.60
21108;DHT22;10712;52.944;9.098;2023-03-07T17:49:05;2.80;80.90
21108;DHT22;10712;52.944;9.098;2023-03-07T17:51:31;2.80;81.10
21108;DHT22;10712;52.944;9.098;2023-03-07T17:53:57;2.70;81.30
21108;DHT22;10712;52.944;9.098;2023-03-07T17:56:23;2.70;81.50
21108;DHT22;10712;52.944;9.098;2023-03-07T17:58:50;2.70;81.90
21108;DHT22;10712;52.944;9.098;2023-03-07T18:01:16;2.60;82.00
21108;DHT22;10712;52.944;9.098;2023-03-07T18:03:43;2.50;82.30
21108;DHT22;10712;52.944;9.098;2023-03-07T18:06:09;2.50;82.50
21108;DHT22;10712;52.944;9.098;2023-03-07T18:08:36;2.50;82.80
21108;DHT22;10712;52.944;9.098;2023-03-07T18:11:06;2.50;83.00
21108;DHT22;10712;52.944;9.098;2023-03-07T18:13:35;2.50;83.20
21108;DHT22;10712;52.944;9.098;2023-03-07T18:16:02;2.50;83.40
21108;DHT22;10712;52.944;9.098;2023-03-07T18:18:30;2.50;83.30
21108;DHT22;10712;52.944;9.098;2023-03-07T18:21:03;2.40;83.40
21108;DHT22;10712;52.944;9.098;2023-03-07T18:23:31;2.40;83.70
21108;DHT22;10712;52.944;9.098;2023-03-07T18:26:03;2.30;83.90
21108;DHT22;10712;52.944;9.098;2023-03-07T18:28:33;2.30;84.10
21108;DHT22;10712;52.944;9.098;2023-03-07T18:31:04;2.30;84.40